• Join FlightAware (Why Join?)
  • Login
  • US Flag 
08:03AM EST


 

Airport Tracker/Info


-or-


 

Live Flight TrackerFlight Track Log ✈ N28295 ✈ 16-Jun-2013 ✈ 2G9 - KFME

Flight Track Log - Related Links

Times and Time Zones

All times are in EDT time to prevent confusion due to time zone crossing. See the N28295 flight status page for this flight to view local times or setup timezone preferences in your user account.

Time Position Orientation Groundspeed Altitude Reporting Facility
EDT Latitude Longitude Course Direction KTS MPH feet Rate Location/Type
09:05PM 40.0228 -79.0053 75° East 113 130 3,000  Level Cleveland Center
09:06PM 40.0267 -78.9861 75° East 122 140 3,200 540 Climbing Cleveland Center
09:07PM 40.0219 -78.9456 99° East 122 140 3,800 540 Climbing Cleveland Center
09:08PM 40.0028 -78.9056 122° Southeast 123 142 4,400 540 Climbing Cleveland Center
09:09PM 39.9814 -78.8653 125° Southeast 126 145 5,000 240 Climbing Cleveland Center
09:10PM 39.9639 -78.8197 117° Southeast 140 161 5,000  Level Cleveland Center
09:11PM 39.9422 -78.7742 122° Southeast 156 180 5,000  Level Cleveland Center
09:12PM 39.9206 -78.7208 118° Southeast 160 184 5,000  Level Cleveland Center
09:13PM 39.9008 -78.6644 114° Southeast 161 185 5,000  Level Cleveland Center
09:14PM 39.8792 -78.6164 120° Southeast 156 180 5,000  Level Cleveland Center
09:15PM 39.8597 -78.5683 118° Southeast 156 180 5,000  Level Cleveland Center
09:16PM 39.8381 -78.5231 122° Southeast 152 175 5,000 -60 Level Cleveland Center
09:18PM 39.7853 -78.3917 118° Southeast 165 190 4,900 -60 Descending Washington Center
09:19PM 39.7614 -78.3503 127° Southeast 153 176 4,900  Level Washington Center
09:20PM 39.7311 -78.3058 132° Southeast 153 176 4,900  Level Washington Center
09:21PM 39.7028 -78.2669 133° Southeast 153 176 4,900  Level Washington Center
09:22PM 39.6725 -78.2281 135° Southeast 153 176 4,900  Level Washington Center
09:23PM 39.6442 -78.1894 134° Southeast 153 176 4,900  Level Washington Center
09:24PM 39.6136 -78.1506 136° Southeast 153 176 4,900  Level Washington Center
09:25PM 39.5831 -78.1144 138° Southeast 153 176 5,000  Climbing Washington Center
09:26PM 39.5547 -78.0786 136° Southeast 153 176 5,000  Level Washington Center
09:27PM 39.5264 -78.0400 134° Southeast 148 170 5,000  Level Washington Center
09:28PM 39.4978 -78.0014 134° Southeast 148 170 5,000  Level Washington Center
09:29PM 39.4675 -77.9625 135° Southeast 148 170 5,000  Level Washington Center
09:30PM 39.4389 -77.9242 134° Southeast 148 170 5,000  Level Washington Center
09:31PM 39.4083 -77.8881 138° Southeast 148 170 5,000  Level Washington Center
09:32PM 39.3822 -77.8417 126° Southeast 147 169 5,000  Level Washington Center
09:34PM 39.4000 -77.7500 76° East 158 182 5,000  Level Potomac TRACON
09:35PM 39.4000 -77.7000 90° East 156 180 5,000  Level Potomac TRACON
09:36PM 39.4000 -77.6500 90° East 148 170 5,000  Level Potomac TRACON
09:37PM 39.4167 -77.5833 72° East 147 169 5,000  Level Potomac TRACON
09:38PM 39.4167 -77.5333 90° East 147 169 5,000 -60 Level Potomac TRACON
09:39PM 39.4333 -77.4833 67° East 156 180 4,900 -360 Descending Potomac TRACON
09:40PM 39.4000 -77.4333 131° Southeast 165 190 4,400 -540 Descending Potomac TRACON
09:41PM 39.3833 -77.3833 113° Southeast 163 188 4,000 -240 Descending Potomac TRACON
09:42PM 39.3667 -77.3333 113° Southeast 153 176 3,900  Descending Potomac TRACON
09:43PM 39.3333 -77.2833 131° Southeast 150 173 4,000 -120 Climbing Potomac TRACON
09:44PM 39.3167 -77.2333 113° Southeast 158 182 3,700 -480 Descending Potomac TRACON
09:45PM 39.2833 -77.1833 131° Southeast 165 190 3,000 -360 Descending Potomac TRACON
09:46PM 39.2667 -77.1500 123° Southeast 164 189 3,000  Level Potomac TRACON
09:47PM 39.2500 -77.1000 113° Southeast 158 182 3,000 -600 Level Potomac TRACON
09:48PM 39.2333 -77.0500 113° Southeast 173 199 1,900 -600 Descending Potomac TRACON
09:49PM 39.2000 -77.0000 131° Southeast 154 177 1,900  Level Potomac TRACON
09:50PM 39.1833 -76.9500 113° Southeast 151 174 1,900 -180 Level Potomac TRACON
09:51PM 39.1500 -76.9000 131° Southeast 157 181 1,600 -300 Descending Potomac TRACON
09:52PM 39.1333 -76.8667 123° Southeast 151 174 1,400 -120 Descending Potomac TRACON
09:53PM 39.1000 -76.8167 131° Southeast 149 171 1,400 -180 Level Potomac TRACON
09:54PM 39.0833 -76.7833 123° Southeast 136 157 1,100 -300 Descending Potomac TRACON
09:55PM 39.0667 -76.7333 113° Southeast 106 122 900 -240 Descending Potomac TRACON
09:57PM 39.0854 -76.7594 322° Northwest  Level Estimated
10:04PM 39.0854 -76.7594 159° South  Level Estimated
10:05PM 39.0854 -76.7594 159° South  Level Estimated
10:06PM 39.0854 -76.7594 159° South  Level Estimated